createdAt,value
2019-01-18T00:00:57.083Z,20.12
2019-01-18T00:03:24.990Z,20.12
2019-01-18T00:05:52.703Z,20.12
2019-01-18T00:08:20.786Z,20.10
2019-01-18T00:10:48.775Z,20.10
2019-01-18T00:13:16.862Z,20.10
2019-01-18T00:15:45.030Z,20.08
2019-01-18T00:18:12.866Z,20.09
2019-01-18T00:20:40.690Z,20.08
2019-01-18T00:23:09.014Z,20.08
2019-01-18T00:25:37.390Z,20.08
2019-01-18T00:28:05.357Z,20.07
2019-01-18T00:30:33.718Z,20.07
2019-01-18T00:33:01.466Z,20.07
2019-01-18T00:35:29.290Z,20.06
2019-01-18T00:37:57.123Z,20.08
2019-01-18T00:40:24.850Z,20.07
2019-01-18T00:42:53.030Z,20.07
2019-01-18T00:45:21.187Z,20.09
2019-01-18T00:47:49.545Z,20.10
2019-01-18T00:50:17.274Z,20.11
2019-01-18T00:52:45.014Z,20.11
2019-01-18T00:55:13.075Z,20.12
2019-01-18T00:57:40.835Z,20.12
2019-01-18T01:00:13.450Z,20.12
2019-01-18T01:02:41.712Z,20.11
2019-01-18T01:05:10.166Z,20.11
2019-01-18T01:07:38.511Z,20.12
2019-01-18T01:10:06.827Z,20.11
2019-01-18T01:12:34.795Z,20.10
2019-01-18T01:15:03.032Z,20.09
2019-01-18T01:17:31.006Z,20.10
2019-01-18T01:19:59.023Z,20.09
2019-01-18T01:22:27.015Z,20.07
2019-01-18T01:24:55.059Z,20.08
2019-01-18T01:27:23.111Z,20.08
2019-01-18T01:29:51.390Z,20.07
2019-01-18T01:32:19.770Z,20.07
2019-01-18T01:34:48.027Z,20.06
2019-01-18T01:37:15.791Z,20.06
2019-01-18T01:39:43.628Z,20.07
2019-01-18T01:42:11.743Z,20.06
2019-01-18T01:44:39.766Z,20.05
2019-01-18T01:47:07.556Z,20.04
2019-01-18T01:49:35.667Z,20.04
2019-01-18T01:52:03.859Z,20.03
2019-01-18T01:54:33.274Z,20.03
2019-01-18T01:57:01.339Z,20.02
2019-01-18T01:59:29.471Z,20.03
2019-01-18T02:01:57.273Z,20.05
2019-01-18T02:04:25.046Z,20.07
2019-01-18T02:06:53.039Z,20.08
2019-01-18T02:09:21.288Z,20.11
2019-01-18T02:11:49.850Z,20.13
2019-01-18T02:14:18.173Z,20.14
2019-01-18T02:16:46.503Z,20.13
2019-01-18T02:19:14.915Z,20.14
2019-01-18T02:21:42.974Z,20.15
2019-01-18T02:24:11.046Z,20.10
2019-01-18T02:26:38.838Z,20.13
2019-01-18T02:29:07.199Z,20.13
2019-01-18T02:31:35.270Z,20.12
2019-01-18T02:34:03.332Z,20.11
2019-01-18T02:36:32.083Z,20.11
2019-01-18T02:39:00.109Z,20.11
2019-01-18T02:41:28.563Z,20.10
2019-01-18T02:43:56.355Z,20.08
2019-01-18T02:46:24.130Z,20.07
2019-01-18T02:48:52.184Z,20.07
2019-01-18T02:51:20.038Z,20.06
2019-01-18T02:53:48.692Z,20.07
2019-01-18T02:56:17.134Z,20.05
2019-01-18T02:58:44.860Z,20.04
2019-01-18T03:01:13.267Z,20.04
2019-01-18T03:03:40.985Z,20.05
2019-01-18T03:06:08.715Z,20.05
2019-01-18T03:08:36.887Z,20.03
2019-01-18T03:11:04.650Z,20.04
2019-01-18T03:13:32.494Z,20.04
2019-01-18T03:16:00.283Z,20.03
2019-01-18T03:18:28.318Z,20.03
2019-01-18T03:20:56.407Z,20.01
2019-01-18T03:23:24.530Z,20.02
2019-01-18T03:25:52.539Z,20.03
2019-01-18T03:28:20.641Z,20.04
2019-01-18T03:30:48.394Z,20.04
2019-01-18T03:33:16.659Z,20.05
2019-01-18T03:35:44.690Z,20.08
2019-01-18T03:38:13.287Z,20.08
2019-01-18T03:40:42.064Z,20.08
2019-01-18T03:43:10.198Z,20.09
2019-01-18T03:45:38.247Z,20.09
2019-01-18T03:48:06.580Z,20.08
2019-01-18T03:50:34.694Z,20.09
2019-01-18T03:53:02.763Z,20.09
2019-01-18T03:55:31.258Z,20.09
2019-01-18T03:57:59.307Z,20.07
2019-01-18T04:00:28.177Z,20.07
2019-01-18T04:02:56.628Z,20.06
2019-01-18T04:05:24.391Z,20.05
2019-01-18T04:07:52.429Z,20.05
2019-01-18T04:10:20.195Z,20.04
2019-01-18T04:12:48.545Z,20.04
2019-01-18T04:15:17.059Z,20.04
2019-01-18T04:17:45.439Z,20.00
2019-01-18T04:20:13.827Z,20.03
2019-01-18T04:22:41.898Z,20.03
2019-01-18T04:25:11.276Z,20.02
2019-01-18T04:27:39.242Z,20.02
2019-01-18T04:30:08.844Z,20.02
2019-01-18T04:32:36.959Z,20.01
2019-01-18T04:35:05.140Z,20.00
2019-01-18T04:37:32.905Z,19.83
2019-01-18T04:40:00.867Z,20.00
2019-01-18T04:42:28.829Z,19.99
2019-01-18T04:44:56.604Z,19.99
2019-01-18T04:47:24.575Z,19.99
2019-01-18T04:49:52.879Z,20.00
2019-01-18T04:52:20.870Z,19.99
2019-01-18T04:54:48.716Z,20.01
2019-01-18T04:57:16.722Z,20.01
2019-01-18T04:59:45.298Z,20.02
2019-01-18T05:02:13.275Z,20.03
2019-01-18T05:04:41.573Z,20.04
2019-01-18T05:07:10.039Z,20.06
2019-01-18T05:09:37.874Z,20.06
2019-01-18T05:12:05.943Z,20.08
2019-01-18T05:14:33.698Z,20.09
2019-01-18T05:17:01.704Z,20.11
2019-01-18T05:19:29.873Z,20.12
2019-01-18T05:21:58.478Z,20.11
2019-01-18T05:24:26.222Z,20.12
2019-01-18T05:26:54.034Z,20.11
2019-01-18T05:29:22.194Z,20.11
2019-01-18T05:31:50.917Z,20.11
2019-01-18T05:34:18.672Z,20.09
2019-01-18T05:36:46.683Z,19.96
2019-01-18T05:39:14.787Z,19.80
2019-01-18T05:41:42.947Z,19.72
2019-01-18T05:44:11.189Z,19.65
2019-01-18T05:46:39.810Z,19.62
2019-01-18T05:49:08.295Z,19.58
2019-01-18T05:51:36.383Z,19.53
2019-01-18T05:54:04.164Z,19.51
2019-01-18T05:56:31.965Z,19.48
2019-01-18T05:58:59.706Z,19.45
2019-01-18T06:01:28.260Z,19.42
2019-01-18T06:03:56.615Z,19.40
2019-01-18T06:06:25.129Z,19.38
2019-01-18T06:08:52.990Z,19.37
2019-01-18T06:11:21.351Z,19.37
2019-01-18T06:13:49.159Z,19.34
2019-01-18T06:16:17.206Z,19.28
2019-01-18T06:18:45.663Z,19.15
2019-01-18T06:21:13.752Z,19.14
2019-01-18T06:23:42.115Z,19.16
2019-01-18T06:26:10.231Z,19.15
2019-01-18T06:28:37.975Z,19.13
2019-01-18T06:31:06.435Z,19.09
2019-01-18T06:33:34.862Z,19.06
2019-01-18T06:36:03.314Z,19.03
2019-01-18T06:38:32.210Z,19.00
2019-01-18T06:41:09.113Z,18.97
2019-01-18T06:43:36.879Z,18.88
2019-01-18T06:46:04.910Z,18.80
2019-01-18T06:48:32.915Z,18.73
2019-01-18T06:51:00.638Z,18.69
2019-01-18T06:53:29.106Z,18.71
2019-01-18T06:55:57.128Z,18.82
2019-01-18T06:58:24.863Z,19.05
2019-01-18T07:00:52.654Z,19.20
2019-01-18T07:03:20.667Z,19.30
2019-01-18T07:05:48.386Z,19.36
2019-01-18T07:08:16.147Z,19.40
2019-01-18T07:10:44.394Z,19.43
2019-01-18T07:13:12.690Z,19.46
2019-01-18T07:15:40.999Z,19.49
2019-01-18T07:18:08.735Z,19.51
2019-01-18T07:20:36.704Z,19.52
2019-01-18T07:23:04.458Z,19.54
2019-01-18T07:25:32.450Z,19.55
2019-01-18T07:28:00.810Z,19.56
2019-01-18T07:30:33.171Z,19.57
2019-01-18T07:33:01.550Z,19.58
2019-01-18T07:35:29.521Z,19.58
2019-01-18T07:37:57.478Z,19.58
2019-01-18T07:40:26.141Z,19.58
2019-01-18T07:42:54.079Z,19.59
2019-01-18T07:45:23.174Z,19.59
2019-01-18T07:47:50.954Z,19.60
2019-01-18T07:50:20.154Z,19.60
2019-01-18T07:52:48.751Z,19.60
2019-01-18T07:55:16.770Z,19.60
2019-01-18T07:57:45.155Z,19.61
2019-01-18T08:00:14.391Z,19.61
2019-01-18T08:02:42.747Z,19.61
2019-01-18T08:05:10.483Z,19.62
2019-01-18T08:07:38.321Z,19.60
2019-01-18T08:10:08.087Z,19.61
2019-01-18T08:12:35.906Z,19.60
2019-01-18T08:15:03.864Z,19.60
2019-01-18T08:17:31.986Z,19.59
2019-01-18T08:20:00.083Z,19.60
2019-01-18T08:22:28.491Z,19.61
2019-01-18T08:24:56.479Z,19.59
2019-01-18T08:27:24.691Z,19.41
2019-01-18T08:29:52.447Z,19.59
2019-01-18T08:32:20.430Z,19.59
2019-01-18T08:34:48.159Z,19.59
2019-01-18T08:37:16.019Z,19.61
2019-01-18T08:39:44.127Z,19.60
2019-01-18T08:42:11.912Z,19.62
2019-01-18T08:44:40.294Z,19.60
2019-01-18T08:47:08.338Z,19.62
2019-01-18T08:49:36.422Z,19.61
2019-01-18T08:52:04.174Z,19.61
2019-01-18T08:54:32.259Z,19.63
2019-01-18T08:57:00.051Z,19.65
2019-01-18T08:59:27.802Z,19.64
2019-01-18T09:01:55.898Z,19.64
2019-01-18T09:04:23.639Z,19.65
2019-01-18T09:06:51.896Z,19.65
2019-01-18T09:09:20.214Z,19.65
2019-01-18T09:11:48.227Z,19.66
2019-01-18T09:14:19.537Z,19.66
2019-01-18T09:16:46.674Z,19.65
2019-01-18T09:19:14.723Z,19.65
2019-01-18T09:21:42.486Z,19.64
2019-01-18T09:24:10.707Z,19.65
2019-01-18T09:26:39.022Z,19.65
2019-01-18T09:29:07.087Z,19.65
2019-01-18T09:31:34.923Z,19.65
2019-01-18T09:34:02.954Z,19.65
2019-01-18T09:36:30.796Z,19.65
2019-01-18T09:38:59.114Z,19.64
2019-01-18T09:41:27.171Z,19.64
2019-01-18T09:43:55.242Z,19.65
2019-01-18T09:46:23.211Z,19.64
2019-01-18T09:48:51.262Z,19.63
2019-01-18T09:51:20.054Z,19.64
2019-01-18T09:53:48.127Z,19.63
2019-01-18T09:56:16.011Z,19.63
2019-01-18T09:58:44.449Z,19.63
2019-01-18T10:01:12.198Z,19.62
2019-01-18T10:03:39.983Z,19.63
2019-01-18T10:06:07.705Z,19.63
2019-01-18T10:08:35.794Z,19.61
2019-01-18T10:11:04.144Z,19.62
2019-01-18T10:13:32.067Z,19.62
2019-01-18T10:16:00.191Z,19.63
2019-01-18T10:18:28.535Z,19.56
2019-01-18T10:20:56.733Z,19.64
2019-01-18T10:23:24.794Z,19.65
2019-01-18T10:25:53.264Z,19.66
2019-01-18T10:28:21.346Z,19.68
2019-01-18T10:30:50.047Z,19.67
2019-01-18T10:33:18.386Z,19.69
2019-01-18T10:35:46.414Z,19.69
2019-01-18T10:38:14.435Z,19.70
2019-01-18T10:40:42.280Z,19.70
2019-01-18T10:43:10.056Z,19.70
2019-01-18T10:45:39.048Z,19.71
2019-01-18T10:48:07.161Z,19.70
2019-01-18T10:50:34.894Z,19.69
2019-01-18T10:53:02.726Z,19.68
2019-01-18T10:55:31.081Z,19.69
2019-01-18T10:57:59.710Z,19.74
2019-01-18T11:00:28.471Z,19.75
2019-01-18T11:02:56.602Z,19.75
2019-01-18T11:05:24.821Z,19.77
2019-01-18T11:07:52.554Z,19.78
2019-01-18T11:10:20.282Z,19.80
2019-01-18T11:12:48.295Z,19.82
2019-01-18T11:15:17.471Z,19.82
2019-01-18T11:17:46.279Z,19.84
2019-01-18T11:20:15.610Z,19.83
2019-01-18T11:22:43.636Z,19.83
2019-01-18T11:25:11.858Z,19.85
2019-01-18T11:27:39.925Z,19.86
2019-01-18T11:30:09.382Z,19.84
2019-01-18T11:32:37.980Z,19.85
2019-01-18T11:35:06.792Z,19.85
2019-01-18T11:37:34.591Z,19.85
2019-01-18T11:40:03.674Z,19.87
2019-01-18T11:42:31.415Z,19.86
2019-01-18T11:44:59.143Z,19.85
2019-01-18T11:47:28.376Z,19.85
2019-01-18T11:49:57.062Z,19.85
2019-01-18T11:52:25.423Z,19.86
2019-01-18T11:54:53.181Z,19.87
2019-01-18T11:57:21.251Z,19.88
2019-01-18T11:59:50.581Z,19.89
2019-01-18T12:02:22.032Z,19.90
2019-01-18T12:04:48.557Z,19.92
2019-01-18T12:07:16.516Z,19.91
2019-01-18T12:09:44.610Z,19.92
2019-01-18T12:12:12.366Z,19.92
2019-01-18T12:14:40.362Z,19.92
2019-01-18T12:17:09.011Z,19.92
2019-01-18T12:19:37.027Z,19.90
2019-01-18T12:22:04.746Z,19.91
2019-01-18T12:24:33.131Z,19.91
2019-01-18T12:27:01.426Z,19.91
2019-01-18T12:29:29.784Z,19.90
2019-01-18T12:31:57.598Z,19.90
2019-01-18T12:34:25.335Z,19.89
2019-01-18T12:36:58.875Z,19.90
2019-01-18T12:39:23.347Z,19.90
2019-01-18T12:41:51.376Z,19.90
2019-01-18T12:44:19.142Z,19.77
2019-01-18T12:46:46.918Z,19.89
2019-01-18T12:49:14.643Z,19.89
2019-01-18T12:51:42.374Z,19.88
2019-01-18T12:54:10.118Z,19.88
2019-01-18T12:56:37.926Z,19.86
2019-01-18T12:59:05.939Z,19.86
2019-01-18T13:01:33.995Z,19.87
2019-01-18T13:04:01.976Z,19.86
2019-01-18T13:06:30.303Z,19.87
2019-01-18T13:08:58.335Z,19.87
2019-01-18T13:11:26.090Z,19.84
2019-01-18T13:13:55.110Z,19.87
2019-01-18T13:16:42.451Z,19.88
2019-01-18T13:19:12.555Z,19.89
2019-01-18T13:21:41.839Z,19.90
2019-01-18T13:24:09.935Z,19.88
2019-01-18T13:26:37.818Z,19.90
2019-01-18T13:29:05.561Z,19.91
2019-01-18T13:31:33.610Z,19.93
2019-01-18T13:34:03.156Z,19.93
2019-01-18T13:36:31.065Z,19.94
2019-01-18T13:38:59.178Z,19.95
2019-01-18T13:41:27.249Z,19.95
2019-01-18T13:43:55.515Z,19.96
2019-01-18T13:46:23.255Z,19.95
2019-01-18T13:48:51.018Z,19.94
2019-01-18T13:51:19.019Z,19.95
2019-01-18T13:53:47.243Z,19.93
2019-01-18T13:56:15.191Z,19.94
2019-01-18T13:58:43.172Z,19.93
2019-01-18T14:01:10.983Z,19.92
2019-01-18T14:03:38.793Z,19.94
2019-01-18T14:06:06.843Z,19.93
2019-01-18T14:08:35.118Z,19.93
2019-01-18T14:11:04.518Z,19.92
2019-01-18T14:13:32.571Z,19.93
2019-01-18T14:16:00.661Z,19.93
2019-01-18T14:18:28.720Z,19.93
2019-01-18T14:20:56.772Z,19.92
2019-01-18T14:23:25.190Z,19.92
2019-01-18T14:25:53.595Z,19.92
2019-01-18T14:28:21.944Z,19.91
2019-01-18T14:30:50.415Z,19.90
2019-01-18T14:33:18.703Z,19.91
2019-01-18T14:35:46.762Z,19.90
2019-01-18T14:38:15.045Z,19.91
2019-01-18T14:40:42.780Z,19.90
2019-01-18T14:43:10.562Z,19.90
2019-01-18T14:45:39.359Z,19.90
2019-01-18T14:48:07.435Z,19.90
2019-01-18T14:50:35.152Z,19.89
2019-01-18T14:53:03.227Z,19.90
2019-01-18T14:55:31.653Z,19.92
2019-01-18T14:57:59.386Z,19.93
2019-01-18T15:00:29.178Z,19.93
2019-01-18T15:03:02.317Z,19.94
2019-01-18T15:05:27.107Z,19.95
2019-01-18T15:07:55.092Z,19.94
2019-01-18T15:10:23.308Z,19.94
2019-01-18T15:12:52.180Z,19.96
2019-01-18T15:15:20.635Z,19.96
2019-01-18T15:17:48.935Z,19.96
2019-01-18T15:20:18.315Z,19.96
2019-01-18T15:22:46.396Z,19.96
2019-01-18T15:25:15.230Z,19.95
2019-01-18T15:27:42.991Z,19.95
2019-01-18T15:30:12.046Z,19.94
2019-01-18T15:32:39.815Z,19.95
2019-01-18T15:35:08.679Z,19.94
2019-01-18T15:37:36.983Z,19.93
2019-01-18T15:40:05.675Z,19.93
2019-01-18T15:42:33.767Z,19.93
2019-01-18T15:45:02.853Z,19.92
2019-01-18T15:47:30.718Z,19.93
2019-01-18T15:49:58.498Z,19.92
2019-01-18T15:52:26.525Z,19.92
2019-01-18T15:54:54.546Z,19.92
2019-01-18T15:57:22.606Z,19.91
2019-01-18T15:59:50.430Z,19.91
2019-01-18T16:02:18.414Z,19.91
2019-01-18T16:04:46.614Z,19.90
2019-01-18T16:07:14.590Z,19.90
2019-01-18T16:09:42.870Z,19.89
2019-01-18T16:12:10.659Z,19.89
2019-01-18T16:14:38.373Z,19.90
2019-01-18T16:17:11.182Z,19.90
2019-01-18T16:19:39.231Z,19.91
2019-01-18T16:22:07.266Z,19.91
2019-01-18T16:24:35.481Z,19.91
2019-01-18T16:27:03.462Z,19.92
2019-01-18T16:29:31.459Z,19.93
2019-01-18T16:31:59.550Z,19.94
2019-01-18T16:34:27.856Z,19.95
2019-01-18T16:36:55.606Z,19.95
2019-01-18T16:39:23.658Z,19.95
2019-01-18T16:41:51.717Z,19.95
2019-01-18T16:44:20.503Z,19.96
2019-01-18T16:46:48.596Z,19.95
2019-01-18T16:49:16.458Z,19.92
2019-01-18T16:51:44.875Z,19.96
2019-01-18T16:54:13.375Z,19.95
2019-01-18T16:56:41.352Z,19.96
2019-01-18T16:59:09.298Z,19.95
2019-01-18T17:01:37.526Z,19.94
2019-01-18T17:04:05.807Z,19.94
2019-01-18T17:06:33.785Z,19.95
2019-01-18T17:09:01.813Z,19.94
2019-01-18T17:11:30.043Z,19.94
2019-01-18T17:13:57.771Z,19.94
2019-01-18T17:16:25.725Z,19.93
2019-01-18T17:18:53.782Z,19.94
2019-01-18T17:21:21.826Z,19.93
2019-01-18T17:23:49.531Z,19.92
2019-01-18T17:26:17.489Z,19.96
2019-01-18T17:28:45.818Z,19.95
2019-01-18T17:31:13.776Z,19.95
2019-01-18T17:33:41.524Z,19.94
2019-01-18T17:36:16.554Z,19.93
2019-01-18T17:39:01.308Z,19.82
2019-01-18T17:41:38.779Z,19.84
2019-01-18T17:44:13.067Z,19.86
2019-01-18T17:46:48.283Z,19.85
2019-01-18T17:49:41.414Z,19.85
2019-01-18T17:52:16.285Z,19.86
2019-01-18T17:54:52.283Z,19.89
2019-01-18T17:57:48.660Z,19.91
2019-01-18T18:00:35.678Z,19.95
2019-01-18T18:03:08.546Z,19.98
2019-01-18T18:05:55.578Z,19.96
2019-01-18T18:08:51.879Z,19.97
2019-01-18T18:11:58.035Z,19.98
2019-01-18T18:14:43.078Z,19.99
2019-01-18T18:17:23.202Z,20.02
2019-01-18T18:20:04.191Z,20.04
2019-01-18T18:22:57.638Z,20.04
2019-01-18T18:25:53.864Z,20.06
2019-01-18T18:28:53.476Z,20.06
2019-01-18T18:31:32.875Z,20.07
2019-01-18T18:34:18.889Z,20.09
2019-01-18T18:36:59.276Z,20.15
2019-01-18T18:39:37.555Z,20.19
2019-01-18T18:42:33.931Z,20.19
2019-01-18T18:45:11.308Z,20.21
2019-01-18T18:47:56.410Z,20.22
2019-01-18T18:50:38.063Z,20.26
2019-01-18T18:53:43.326Z,20.28
2019-01-18T18:56:27.647Z,20.29
2019-01-18T18:59:02.158Z,20.32
2019-01-18T19:01:55.550Z,20.35
2019-01-18T19:04:30.726Z,20.34
2019-01-18T19:07:30.795Z,20.35
2019-01-18T19:10:01.759Z,20.28
2019-01-18T19:12:47.863Z,20.18
2019-01-18T19:15:47.848Z,20.22
2019-01-18T19:18:36.221Z,20.28
2019-01-18T19:21:38.683Z,20.28
2019-01-18T19:24:28.111Z,20.29
2019-01-18T19:27:09.418Z,20.29
2019-01-18T19:29:55.905Z,20.31
2019-01-18T19:32:29.096Z,20.29
2019-01-18T19:35:00.044Z,20.28
2019-01-18T19:37:47.353Z,20.28
2019-01-18T19:40:18.915Z,20.27
2019-01-18T19:43:17.944Z,20.26
2019-01-18T19:46:03.652Z,20.27
2019-01-18T19:48:35.407Z,20.26
2019-01-18T19:51:09.526Z,20.26
2019-01-18T19:53:56.009Z,20.26
2019-01-18T19:56:53.106Z,20.27
2019-01-18T19:59:40.239Z,20.29
2019-01-18T20:02:26.422Z,20.30
2019-01-18T20:05:19.567Z,20.29
2019-01-18T20:07:59.707Z,20.28
2019-01-18T20:10:52.996Z,20.28
2019-01-18T20:13:40.131Z,20.27
2019-01-18T20:16:16.890Z,20.29
2019-01-18T20:18:51.763Z,20.27
2019-01-18T20:21:23.779Z,20.09
2019-01-18T20:24:02.008Z,20.06
2019-01-18T20:26:49.591Z,20.13
2019-01-18T20:29:35.820Z,20.21
2019-01-18T20:32:08.467Z,20.23
2019-01-18T20:35:07.731Z,20.26
2019-01-18T20:37:57.859Z,20.19
2019-01-18T20:40:44.175Z,20.20
2019-01-18T20:43:34.819Z,20.25
2019-01-18T20:46:14.093Z,20.28
2019-01-18T20:48:52.987Z,20.29
2019-01-18T20:51:27.931Z,20.30
2019-01-18T20:54:13.363Z,20.30
2019-01-18T20:57:00.477Z,20.30
2019-01-18T20:59:36.743Z,20.29
2019-01-18T21:02:36.251Z,20.28
2019-01-18T21:05:25.495Z,20.24
2019-01-18T21:08:12.359Z,20.24
2019-01-18T21:10:57.953Z,20.27
2019-01-18T21:13:36.874Z,20.26
2019-01-18T21:16:10.044Z,20.27
2019-01-18T21:18:43.960Z,20.27
2019-01-18T21:21:33.813Z,20.27
2019-01-18T21:24:08.071Z,20.26
2019-01-18T21:27:06.005Z,20.28
2019-01-18T21:29:54.203Z,20.27
2019-01-18T21:32:53.866Z,20.27
2019-01-18T21:35:50.132Z,20.26
2019-01-18T21:38:31.264Z,20.26
2019-01-18T21:41:17.619Z,20.25
2019-01-18T21:44:10.819Z,20.24
2019-01-18T21:46:53.797Z,20.23
2019-01-18T21:49:41.036Z,20.21
2019-01-18T21:52:27.024Z,20.21
2019-01-18T21:55:19.996Z,20.22
2019-01-18T21:58:07.082Z,20.22
2019-01-18T22:00:52.384Z,20.22
2019-01-18T22:03:39.226Z,20.24
2019-01-18T22:06:10.798Z,20.24
2019-01-18T22:08:43.943Z,20.22
2019-01-18T22:11:16.765Z,20.21
2019-01-18T22:14:10.190Z,20.16
2019-01-18T22:16:46.679Z,20.23
2019-01-18T22:19:37.071Z,20.25
2019-01-18T22:22:08.739Z,20.26
2019-01-18T22:25:14.184Z,20.26
2019-01-18T22:27:54.199Z,20.28
2019-01-18T22:30:47.259Z,20.28
2019-01-18T22:33:26.475Z,20.25
2019-01-18T22:36:02.042Z,20.23
2019-01-18T22:38:55.399Z,20.25
2019-01-18T22:41:30.892Z,20.23
2019-01-18T22:44:08.867Z,20.23
2019-01-18T22:46:48.223Z,20.21
2019-01-18T22:49:35.267Z,20.20
2019-01-18T22:52:15.771Z,20.18
2019-01-18T22:55:03.057Z,20.16
2019-01-18T22:57:33.350Z,20.15
2019-01-18T23:00:40.982Z,20.13
2019-01-18T23:03:22.527Z,20.12
2019-01-18T23:06:07.116Z,20.11
2019-01-18T23:08:41.922Z,20.11
2019-01-18T23:11:34.930Z,20.10
2019-01-18T23:14:28.329Z,20.09
2019-01-18T23:17:05.080Z,20.08
2019-01-18T23:19:58.691Z,20.07
2019-01-18T23:22:40.577Z,20.07
2019-01-18T23:25:30.410Z,20.07
2019-01-18T23:28:08.600Z,20.06
2019-01-18T23:30:39.139Z,20.06
2019-01-18T23:33:29.495Z,20.07
2019-01-18T23:36:03.637Z,20.08
2019-01-18T23:38:46.037Z,20.07
2019-01-18T23:41:19.727Z,20.08
2019-01-18T23:43:54.176Z,20.07
2019-01-18T23:46:42.116Z,20.06
2019-01-18T23:49:13.044Z,20.06
2019-01-18T23:51:59.323Z,20.05
2019-01-18T23:54:45.299Z,20.04
2019-01-18T23:57:16.909Z,20.03
2019-01-18T23:59:47.804Z,20.03
